TimePDT,TemperatureF,Dew PointF,Humidity,Sea Level PressureIn,VisibilityMPH,Wind Direction,Wind SpeedMPH,Gust SpeedMPH,PrecipitationIn,Events,Conditions,WindDirDegrees,DateUTC
12:53 AM,80.1,46.0,30,29.72,10.0,Calm,Calm,-,N/A,,Clear,0,2013-06-14 07:53:00
1:53 AM,80.1,46.0,30,29.71,10.0,SSE,3.5,-,N/A,,Clear,150,2013-06-14 08:53:00
2:53 AM,78.1,48.0,35,29.72,10.0,Calm,Calm,-,N/A,,Clear,0,2013-06-14 09:53:00
3:53 AM,75.9,48.9,38,29.73,10.0,Calm,Calm,-,N/A,,Clear,0,2013-06-14 10:53:00
4:53 AM,73.9,51.1,45,29.73,10.0,Calm,Calm,-,N/A,,Clear,0,2013-06-14 11:53:00
5:53 AM,72.0,52.0,49,29.75,10.0,Calm,Calm,-,N/A,,Clear,0,2013-06-14 12:53:00
6:53 AM,77.0,48.9,37,29.76,10.0,Calm,Calm,-,N/A,,Clear,0,2013-06-14 13:53:00
7:53 AM,81.0,45.0,28,29.78,10.0,SSE,5.8,-,N/A,,Clear,160,2013-06-14 14:53:00
8:53 AM,86.0,42.1,21,29.79,10.0,SSE,8.1,-,N/A,,Clear,150,2013-06-14 15:53:00
9:53 AM,89.1,43.0,20,29.78,10.0,ENE,3.5,-,N/A,,Clear,70,2013-06-14 16:53:00
10:53 AM,91.9,43.0,18,29.78,10.0,Variable,3.5,-,N/A,,Partly Cloudy,0,2013-06-14 17:53:00
11:53 AM,95.0,41.0,15,29.76,10.0,East,4.6,-,N/A,,Clear,100,2013-06-14 18:53:00
12:53 PM,97.0,35.1,11,29.75,10.0,East,6.9,-,N/A,,Clear,90,2013-06-14 19:53:00
1:53 PM,100.0,27.0,8,29.72,10.0,ESE,4.6,-,N/A,,Clear,120,2013-06-14 20:53:00
2:53 PM,102.0,23.0,6,29.69,10.0,Variable,5.8,-,N/A,,Clear,0,2013-06-14 21:53:00
3:53 PM,102.0,25.0,7,29.68,10.0,East,9.2,17.3,N/A,,Clear,100,2013-06-14 22:53:00
4:53 PM,104.0,19.0,5,29.65,10.0,NNW,6.9,17.3,N/A,,Clear,330,2013-06-14 23:53:00
5:53 PM,102.9,23.0,6,29.64,10.0,NW,15.0,-,N/A,,Clear,320,2013-06-15 00:53:00
6:53 PM,100.0,33.1,10,29.63,10.0,NNW,19.6,24.2,N/A,,Clear,330,2013-06-15 01:53:00
7:53 PM,93.9,42.1,17,29.65,10.0,NW,18.4,28.8,N/A,,Clear,320,2013-06-15 02:53:00
8:53 PM,90.0,43.0,19,29.66,10.0,NW,21.9,-,N/A,,Clear,320,2013-06-15 03:53:00
9:53 PM,88.0,44.1,22,29.67,10.0,NW,16.1,20.7,N/A,,Clear,320,2013-06-15 04:53:00
10:53 PM,84.9,44.1,24,29.68,10.0,West,6.9,-,N/A,,Clear,270,2013-06-15 05:53:00
11:53 PM,82.9,43.0,24,29.68,10.0,WNW,5.8,16.1,N/A,,Clear,300,2013-06-15 06:53:00